Terminal Aerodrome Forecast
Issued by NWS

Home | Current Version | Previous Version | Text Only | Print | Product List | Glossary On
Versions: 1 2 3 4 5 6 7 8 9 10 11 12 13 14
000
FTUS45 KRIW 291120
TAFJAC
TAF
KJAC 291120Z 2912/3012 VRB04KT P6SM VCFG FEW003
     FM291600 20007KT P6SM SCT070
     FM292000 18010KT P6SM VCTS SCT060CB BKN090
     FM300100 19006KT P6SM VCSH SCT060 BKN080
     FM300500 18006KT P6SM BKN080
      AMD LTD TO CLD VIS AND WIND=

USA.gov is the U.S. government's official web portal to all federal, state and local government web resources and services.